Nadym, Russia
Current Conditions -  °F | °C
As of 9:00 AM on Tuesday 21 Oct 2014 (Local Time) from USRR Reporting Station
Moderate Snow Moderate Snow  
Wind Chill:   Ceiling: 2100
Heat Index: 16°   Visibility: 0.93mi
Dew Point: 14°   Wind: 11mph
Humidity: 93%   Direction: 310°NW
Pressure: 29.21"   Gusts: NA
Location:  65.53°N, 72.52°E
Report Text: USRR 210400Z 31005MPS 1500 SN OVC021 M09/M10 Q0989 TEMPO 1000SN BKN007 RMK OBST OBSC QFE737 25////32
Loading
Personal Weather Stations






























Interactive Weather Map
Tropical Storm Tracking
New forecast layout! Learn more

10-Day Weather Forecast

Advertisements
Track Severe Weather on mobile